Time;durP1;ratioP1;P1;durP2;ratioP2;P2;SDS_P1;SDS_P2;PMS_P1;PMS_P2;Temp;Humidity;BMP_temperature;BMP_pressure;BME280_temperature;BME280_humidity;BME280_pressure;Samples;Min_cycle;Max_cycle;Signal;HPM_P1;HPM_P2
2022/05/30 00:00:55;;;;;;;11.45;3.30;;;;;;;9.21;79.46;98778.00;8203765;28;20467;-71
2022/05/30 00:04:57;;;;;;;14.77;3.60;;;;;;;9.10;79.59;98776.66;8221449;28;20057;-72
2022/05/30 00:08:58;;;;;;;12.32;3.60;;;;;;;9.01;79.63;98773.09;8199230;28;20054;-72
2022/05/30 00:12:59;;;;;;;9.07;3.40;;;;;;;8.96;79.45;98765.94;8228361;28;20043;-72
2022/05/30 00:17:01;;;;;;;9.25;3.47;;;;;;;8.90;79.86;98767.97;8207715;28;20129;-72
2022/05/30 00:21:02;;;;;;;10.38;3.17;;;;;;;8.87;79.98;98765.91;8230679;28;20467;-72
2022/05/30 00:25:04;;;;;;;7.10;3.20;;;;;;;8.84;79.64;98769.19;8220080;28;20102;-73
2022/05/30 00:29:06;;;;;;;5.72;2.80;;;;;;;8.82;79.78;98766.00;8201501;28;20062;-73
2022/05/30 00:33:06;;;;;;;10.20;3.78;;;;;;;8.80;79.74;98762.81;8198676;28;20122;-71
2022/05/30 00:37:07;;;;;;;11.38;3.50;;;;;;;8.77;79.55;98763.44;8203486;28;20579;-72
2022/05/30 00:41:08;;;;;;;6.38;3.55;;;;;;;8.75;79.79;98762.94;8198552;28;20051;-72
2022/05/30 00:45:10;;;;;;;10.48;3.33;;;;;;;8.75;80.07;98760.25;8223971;28;20066;-72
2022/05/30 00:49:12;;;;;;;8.27;4.07;;;;;;;8.70;80.08;98752.28;8228749;28;20043;-72
2022/05/30 00:53:13;;;;;;;12.05;3.55;;;;;;;8.64;80.36;98748.13;8201345;28;20472;-72
2022/05/30 00:57:21;;;;;;;8.23;4.10;;;;;;;8.57;80.73;98755.81;8206912;28;20046;-72
2022/05/30 01:01:22;;;;;;;12.27;4.50;;;;;;;8.56;80.49;98751.53;8214255;28;20081;-71
2022/05/30 01:09:44;;;;;;;15.80;5.50;;;;;;;8.61;80.61;98748.75;8209144;28;20187;-72
2022/05/30 01:13:45;;;;;;;12.52;5.43;;;;;;;8.60;80.65;98741.75;8217292;28;20054;-72
2022/05/30 01:18:24;;;;;;;13.77;5.75;;;;;;;8.62;80.58;98750.31;8205231;28;20055;-72
2022/05/30 01:22:55;;;;;;;14.25;6.38;;;;;;;8.63;80.62;98741.13;8215430;28;20142;-71
2022/05/30 01:27:17;;;;;;;16.35;6.43;;;;;;;8.66;80.69;98734.38;8201644;28;20051;-71
2022/05/30 01:31:18;;;;;;;13.05;6.15;;;;;;;8.67;80.73;98736.72;8219682;28;20431;-72
2022/05/30 01:35:24;;;;;;;15.48;6.25;;;;;;;8.67;80.86;98736.72;8212069;28;20109;-72
2022/05/30 01:39:25;;;;;;;17.23;6.28;;;;;;;8.68;80.86;98732.94;8208162;28;20059;-72
2022/05/30 01:43:26;;;;;;;15.95;6.63;;;;;;;8.69;81.24;98722.97;8217233;28;20110;-72
2022/05/30 01:47:27;;;;;;;14.43;6.43;;;;;;;8.70;81.21;98714.59;8200885;28;20482;-73
2022/05/30 01:51:28;;;;;;;15.02;6.60;;;;;;;8.73;81.39;98724.75;8236222;28;20495;-72
2022/05/30 01:55:29;;;;;;;17.10;6.78;;;;;;;8.71;81.30;98716.19;8233766;28;20039;-72
2022/05/30 01:59:30;;;;;;;16.00;6.47;;;;;;;8.67;81.59;98720.56;8226605;28;20058;-71
2022/05/30 02:03:33;;;;;;;16.02;6.70;;;;;;;8.65;81.60;98717.41;8200543;28;20137;-73
2022/05/30 02:07:34;;;;;;;15.90;7.10;;;;;;;8.65;81.58;98714.72;8209683;28;20055;-73
2022/05/30 02:11:36;;;;;;;12.63;6.20;;;;;;;8.65;81.82;98722.78;8212989;28;20062;-73
2022/05/30 02:17:00;;;;;;;13.25;6.07;;;;;;;8.64;81.87;98723.88;8212340;28;20053;-73
2022/05/30 02:19:57;;;;;;;11.38;5.85;;;;;;;8.63;82.26;98724.97;8228734;28;20102;-73
2022/05/30 02:23:59;;;;;;;14.80;6.30;;;;;;;8.63;82.30;98724.97;8232431;28;20055;-73
2022/05/30 02:27:59;;;;;;;11.15;6.20;;;;;;;8.65;82.45;98728.19;8206401;28;20094;-72
2022/05/30 02:32:01;;;;;;;14.43;6.40;;;;;;;8.70;82.38;98741.53;8222525;28;20043;-71
2022/05/30 02:40:21;;;;;;;19.98;8.55;;;;;;;8.81;82.46;98737.50;8191524;28;20051;-72
2022/05/30 02:44:24;;;;;;;16.00;8.10;;;;;;;8.84;83.12;98742.25;8200888;28;20083;-73
2022/05/30 02:48:25;;;;;;;26.08;10.02;;;;;;;8.89;84.35;98734.06;8200456;29;20055;-72
2022/05/30 02:52:26;;;;;;;17.77;8.68;;;;;;;9.00;83.89;98736.50;8201555;28;20396;-72
2022/05/30 02:56:27;;;;;;;16.75;7.55;;;;;;;9.08;83.42;98730.38;8201098;28;20051;-72
2022/05/30 03:00:28;;;;;;;16.33;7.65;;;;;;;9.12;83.47;98736.75;8232507;28;20488;-73
2022/05/30 03:04:29;;;;;;;17.65;6.78;;;;;;;9.10;84.12;98730.84;8200820;28;20043;-72
2022/05/30 03:08:30;;;;;;;17.50;6.20;;;;;;;9.17;83.59;98739.31;8201154;28;20460;-73
2022/05/30 03:12:31;;;;;;;15.95;5.60;;;;;;;9.19;83.23;98737.09;8206318;28;20055;-72
2022/05/30 03:16:32;;;;;;;15.27;5.65;;;;;;;9.19;83.46;98737.09;8200271;28;20059;-73
2022/05/30 03:20:33;;;;;;;10.32;5.28;;;;;;;9.23;83.39;98735.38;8200346;28;20059;-73
2022/05/30 03:24:34;;;;;;;13.73;5.90;;;;;;;9.23;83.39;98740.78;8203333;28;20059;-72
2022/05/30 03:28:36;;;;;;;18.25;6.63;;;;;;;9.22;83.25;98748.06;8207813;28;20047;-72
2022/05/30 03:32:37;;;;;;;17.65;6.25;;;;;;;9.22;83.71;98747.25;8221599;28;20039;-72
2022/05/30 03:36:38;;;;;;;13.75;6.20;;;;;;;9.30;83.32;98754.59;8212935;28;20077;-73
2022/05/30 03:40:39;;;;;;;13.02;6.10;;;;;;;9.33;83.28;98743.19;8198664;28;20044;-71
2022/05/30 03:44:44;;;;;;;13.75;6.25;;;;;;;9.38;83.40;98740.38;8230313;28;20073;-72
2022/05/30 03:48:45;;;;;;;13.30;5.75;;;;;;;9.50;82.87;98743.28;8232907;28;20074;-72
2022/05/30 03:52:46;;;;;;;8.60;5.43;;;;;;;9.63;82.68;98753.16;8203420;28;20050;-71
2022/05/30 03:56:47;;;;;;;12.93;5.35;;;;;;;9.70;82.63;98753.53;8204230;28;20087;-72
2022/05/30 04:00:48;;;;;;;11.77;5.50;;;;;;;9.78;82.46;98751.19;8200421;28;20097;-71
2022/05/30 04:04:48;;;;;;;10.65;5.80;;;;;;;9.84;82.11;98752.63;8199277;28;20524;-73
2022/05/30 04:08:49;;;;;;;13.05;5.50;;;;;;;9.88;82.25;98759.78;8198091;28;20051;-72
2022/05/30 04:12:51;;;;;;;12.32;5.45;;;;;;;9.91;82.15;98748.38;8199084;28;20448;-72
2022/05/30 04:16:52;;;;;;;11.52;5.40;;;;;;;9.93;82.02;98756.16;8197785;29;20047;-72
2022/05/30 04:20:53;;;;;;;12.18;4.95;;;;;;;10.00;81.97;98759.19;8197388;28;20051;-72
2022/05/30 04:24:55;;;;;;;11.02;5.22;;;;;;;10.02;81.78;98759.66;8197203;28;20069;-72
2022/05/30 04:28:56;;;;;;;15.48;7.05;;;;;;;10.05;82.28;98764.41;8195344;28;20073;-73
2022/05/30 04:32:57;;;;;;;10.32;5.43;;;;;;;10.13;82.10;98771.75;8197624;28;20058;-73
2022/05/30 04:36:58;;;;;;;10.45;4.95;;;;;;;10.24;81.74;98773.09;8199246;28;20067;-72
2022/05/30 04:41:00;;;;;;;10.88;5.05;;;;;;;10.35;81.90;98771.69;8198101;28;20086;-73
2022/05/30 04:45:01;;;;;;;10.90;5.38;;;;;;;10.52;81.55;98773.63;8198347;28;20522;-72
2022/05/30 04:49:02;;;;;;;12.90;4.97;;;;;;;10.66;81.36;98773.47;8198658;28;20040;-73
2022/05/30 04:53:03;;;;;;;9.80;5.07;;;;;;;10.80;81.14;98774.09;8196154;29;20039;-73
2022/05/30 04:57:06;;;;;;;11.32;4.90;;;;;;;10.96;80.62;98772.50;8176730;28;20134;-72
2022/05/30 05:01:09;;;;;;;11.88;4.13;;;;;;;11.06;80.08;98783.00;8167674;29;20048;-72
2022/05/30 05:05:12;;;;;;;11.50;4.10;;;;;;;11.17;79.25;98773.44;8168990;29;20047;-71
2022/05/30 05:09:15;;;;;;;10.00;3.72;;;;;;;11.33;77.98;98777.22;8171085;29;20054;-72
2022/05/30 05:13:16;;;;;;;12.90;3.78;;;;;;;11.54;76.81;98771.13;8166515;28;20052;-72
2022/05/30 05:17:17;;;;;;;12.57;3.70;;;;;;;11.65;76.38;98765.06;8193722;28;20516;-73
2022/05/30 05:21:22;;;;;;;5.78;3.17;;;;;;;11.67;76.46;98770.16;8181039;28;20504;-73
2022/05/30 05:25:23;;;;;;;6.57;3.17;;;;;;;11.80;75.69;98774.56;8174902;29;20051;-72
2022/05/30 05:29:25;;;;;;;8.60;3.80;;;;;;;11.98;75.26;98770.69;8189210;28;20059;-72
2022/05/30 05:33:26;;;;;;;9.55;3.08;;;;;;;12.03;74.21;98778.63;8186224;28;20659;-72
2022/05/30 05:37:27;;;;;;;6.40;3.22;;;;;;;12.11;74.55;98783.19;8168140;28;20080;-71
2022/05/30 05:41:28;;;;;;;6.13;2.65;;;;;;;12.20;74.88;98777.75;8173152;29;20059;-72
2022/05/30 05:45:36;;;;;;;7.65;3.08;;;;;;;12.34;72.64;98782.91;8175301;29;20055;-73
2022/05/30 05:49:37;;;;;;;8.75;2.58;;;;;;;12.21;72.12;98796.34;8179046;28;20500;-72
2022/05/30 05:53:38;;;;;;;8.60;2.80;;;;;;;12.11;72.58;98791.31;8184418;29;20098;-73
2022/05/30 05:57:39;;;;;;;7.78;2.60;;;;;;;12.24;72.11;98790.28;8203214;28;20058;-72
2022/05/30 06:01:40;;;;;;;4.85;2.40;;;;;;;12.41;72.64;98788.63;8181817;28;20129;-73
2022/05/30 06:05:41;;;;;;;5.68;2.70;;;;;;;12.38;71.66;98795.47;8175554;29;20066;-72
2022/05/30 06:09:42;;;;;;;5.63;2.38;;;;;;;12.17;71.82;98797.31;8199103;28;20568;-73
2022/05/30 06:13:46;;;;;;;7.93;2.60;;;;;;;12.25;71.87;98801.94;8202894;28;20047;-71
2022/05/30 06:17:47;;;;;;;8.82;2.00;;;;;;;12.39;71.33;98812.50;8201823;28;20117;-72
2022/05/30 06:21:48;;;;;;;7.38;2.00;;;;;;;12.55;70.10;98805.41;8202492;28;20044;-72
2022/05/30 06:25:49;;;;;;;6.95;1.98;;;;;;;12.55;70.33;98799.97;8168242;28;20047;-72
2022/05/30 06:29:53;;;;;;;3.97;1.90;;;;;;;12.80;69.62;98796.28;8202413;28;20050;-72
2022/05/30 06:33:54;;;;;;;5.97;2.00;;;;;;;12.92;68.94;98793.66;8202402;28;20253;-72
2022/05/30 06:37:55;;;;;;;5.40;2.20;;;;;;;13.14;68.87;98786.34;8199625;28;20712;-73
2022/05/30 06:41:56;;;;;;;3.53;1.58;;;;;;;13.29;67.47;98785.72;8200506;29;20058;-71
2022/05/30 06:45:58;;;;;;;3.10;1.38;;;;;;;13.52;66.08;98795.84;8201375;28;20447;-72
2022/05/30 06:49:59;;;;;;;3.88;1.52;;;;;;;13.61;65.54;98793.03;8201997;28;20047;-73
2022/05/30 06:54:01;;;;;;;3.53;1.85;;;;;;;13.58;65.68;98804.56;8215022;28;20091;-73
2022/05/30 06:58:14;;;;;;;3.50;2.00;;;;;;;13.41;65.62;98804.75;8201886;28;20424;-73
2022/05/30 07:02:17;;;;;;;12.60;2.08;;;;;;;13.36;67.23;98802.25;8201612;28;20051;-73
2022/05/30 07:06:22;;;;;;;5.97;2.30;;;;;;;13.40;67.03;98797.72;8201273;28;20055;-73
2022/05/30 07:10:25;;;;;;;6.07;2.10;;;;;;;13.55;67.08;98805.22;8201412;28;20105;-72
2022/05/30 07:14:26;;;;;;;3.92;2.28;;;;;;;13.79;67.47;98799.88;8200769;28;20142;-73
2022/05/30 07:18:27;;;;;;;6.90;2.70;;;;;;;14.06;65.83;98797.63;8182888;29;20053;-72
2022/05/30 07:22:29;;;;;;;5.38;2.28;;;;;;;14.12;65.71;98801.69;8200789;28;20066;-72
2022/05/30 07:26:30;;;;;;;5.93;2.53;;;;;;;14.16;65.14;98799.91;8214597;28;20411;-73
2022/05/30 07:30:34;;;;;;;5.97;2.60;;;;;;;14.12;65.06;98796.25;8200647;28;20475;-72
2022/05/30 07:34:37;;;;;;;5.57;2.75;;;;;;;13.85;66.54;98797.72;8214099;28;20058;-72
2022/05/30 07:38:38;;;;;;;8.05;3.50;;;;;;;13.92;66.74;98804.16;8166586;29;20059;-72
2022/05/30 07:42:40;;;;;;;7.55;4.45;;;;;;;13.86;66.01;98816.38;8214031;28;20058;-72
2022/05/30 07:46:43;;;;;;;8.68;4.78;;;;;;;13.86;66.46;98815.56;8199880;28;20423;-72
2022/05/30 07:50:44;;;;;;;12.13;5.68;;;;;;;13.90;66.41;98816.50;8165928;29;20047;-73
2022/05/30 07:54:45;;;;;;;16.25;5.85;;;;;;;13.60;66.43;98824.00;8199506;28;20146;-74
2022/05/30 07:58:46;;;;;;;12.77;4.50;;;;;;;13.48;66.30;98826.69;8165742;29;20055;-71
2022/05/30 08:02:48;;;;;;;10.50;4.80;;;;;;;13.37;66.11;98830.94;8190647;28;20082;-72
2022/05/30 08:06:49;;;;;;;8.23;4.80;;;;;;;13.48;65.82;98826.69;8193055;29;20522;-71
2022/05/30 08:10:51;;;;;;;10.85;4.15;;;;;;;13.64;64.12;98835.75;8174659;28;20051;-71
2022/05/30 08:14:53;;;;;;;6.82;3.08;;;;;;;13.63;62.87;98845.06;8187483;28;20035;-75
2022/05/30 08:18:54;;;;;;;6.88;4.07;;;;;;;13.55;63.06;98837.78;8214251;28;20126;-72
2022/05/30 08:22:55;;;;;;;7.97;3.45;;;;;;;13.68;63.25;98836.69;8200004;28;20480;-73
2022/05/30 08:26:57;;;;;;;6.60;4.20;;;;;;;13.69;62.03;98838.28;8200687;28;20066;-73
2022/05/30 08:30:57;;;;;;;13.05;4.07;;;;;;;13.76;62.97;98838.53;8200491;28;20126;-71
2022/05/30 08:35:00;;;;;;;5.85;3.13;;;;;;;14.22;63.13;98839.28;8199801;28;20043;-73
2022/05/30 08:43:30;;;;;;;6.15;3.75;;;;;;;14.31;62.01;98848.09;8198186;28;20051;-72
2022/05/30 08:47:45;;;;;;;7.63;2.92;;;;;;;14.24;62.34;98847.88;8198641;28;20062;-71
2022/05/30 08:52:04;;;;;;;6.35;3.20;;;;;;;14.27;62.43;98858.06;8198682;29;20055;-72
2022/05/30 08:56:14;;;;;;;5.15;3.10;;;;;;;14.41;62.67;98853.13;8200070;28;20494;-72
2022/05/30 09:00:28;;;;;;;8.13;3.88;;;;;;;14.55;62.44;98848.13;8168269;29;20083;-72
2022/05/30 09:04:36;;;;;;;9.80;3.22;;;;;;;14.51;61.50;98847.22;8166998;29;20127;-73
2022/05/30 09:08:47;;;;;;;8.48;3.50;;;;;;;14.39;61.97;98855.38;8167813;29;20044;-73
2022/05/30 09:12:59;;;;;;;7.97;3.67;;;;;;;14.41;62.33;98858.53;8182421;28;20054;-72
2022/05/30 09:17:03;;;;;;;10.60;3.33;;;;;;;14.57;62.26;98856.72;8168979;29;20062;-73
2022/05/30 09:21:04;;;;;;;11.52;3.17;;;;;;;14.62;61.12;98859.22;8200652;29;20134;-72
2022/05/30 09:29:36;;;;;;;6.70;3.22;;;;;;;14.40;63.39;98862.38;8204854;28;20055;-72
2022/05/30 09:33:40;;;;;;;4.22;2.67;;;;;;;14.70;62.64;98871.09;8204913;28;20070;-73
2022/05/30 09:37:42;;;;;;;7.68;3.33;;;;;;;14.65;61.54;98865.88;8201582;28;20059;-72
2022/05/30 09:41:43;;;;;;;6.93;3.78;;;;;;;14.87;61.91;98875.50;8203594;28;20065;-72
2022/05/30 09:45:45;;;;;;;5.07;3.47;;;;;;;15.10;61.28;98868.44;8204758;28;20504;-72
2022/05/30 09:49:49;;;;;;;4.97;3.38;;;;;;;15.35;60.97;98869.94;8204546;28;20106;-73
2022/05/30 09:53:53;;;;;;;10.90;3.50;;;;;;;15.30;59.58;98862.03;8203362;28;20046;-72
2022/05/30 09:57:55;;;;;;;8.05;3.20;;;;;;;15.42;58.24;98853.81;8204379;28;20416;-72
2022/05/30 10:01:56;;;;;;;7.20;2.42;;;;;;;15.28;55.92;98869.72;8204310;28;20094;-73
2022/05/30 10:06:25;;;;;;;5.82;2.60;;;;;;;15.33;56.89;98858.63;8201887;28;20652;-72
2022/05/30 10:10:48;;;;;;;8.05;3.00;;;;;;;15.67;55.04;98853.72;8199948;28;20055;-71
2022/05/30 10:14:50;;;;;;;7.53;2.67;;;;;;;15.82;55.12;98855.69;8199817;28;20638;-72
2022/05/30 10:18:59;;;;;;;5.95;2.13;;;;;;;15.56;55.90;98859.69;8199563;29;20082;-72
2022/05/30 10:28:15;;;;;;;4.68;2.38;;;;;;;15.02;57.57;98855.75;8198967;28;20062;-72
2022/05/30 10:32:30;;;;;;;10.60;2.70;;;;;;;14.96;57.36;98857.16;8135929;29;20058;-74
2022/05/30 10:36:55;;;;;;;5.82;2.30;;;;;;;14.73;58.54;98854.91;8136100;29;20449;-72
2022/05/30 10:41:09;;;;;;;5.18;2.40;;;;;;;14.98;58.03;98854.84;8119823;29;20570;-71
2022/05/30 10:45:30;;;;;;;5.75;2.10;;;;;;;15.32;57.87;98857.03;8130115;29;20056;-72
2022/05/30 10:49:35;;;;;;;3.80;1.63;;;;;;;15.87;55.38;98849.97;8108187;29;20067;-72
2022/05/30 10:53:54;;;;;;;6.32;2.10;;;;;;;16.41;53.57;98856.44;8104573;29;20052;-74
2022/05/30 10:58:00;;;;;;;3.90;1.88;;;;;;;16.15;53.44;98852.66;8118404;29;20464;-73
2022/05/30 11:02:12;;;;;;;3.88;1.90;;;;;;;15.74;52.51;98859.38;8135381;29;20060;-72
2022/05/30 11:06:27;;;;;;;7.90;2.00;;;;;;;15.42;53.79;98848.38;8137780;29;20044;-72
2022/05/30 11:10:40;;;;;;;4.50;1.80;;;;;;;15.68;53.96;98844.44;8184021;29;20063;-72
2022/05/30 11:14:50;;;;;;;4.35;2.20;;;;;;;16.31;52.85;98856.97;8201924;28;20048;-72
2022/05/30 11:18:58;;;;;;;7.38;2.40;;;;;;;17.00;50.95;98855.47;8201997;28;20047;-74
2022/05/30 11:23:00;;;;;;;6.20;2.00;;;;;;;17.35;50.90;98854.59;8200303;29;20427;-72
2022/05/30 11:27:30;;;;;;;5.15;2.25;;;;;;;17.52;50.88;98856.91;8201539;28;20062;-73
2022/05/30 11:31:50;;;;;;;7.18;2.00;;;;;;;17.61;48.43;98846.56;8133850;29;20191;-73
2022/05/30 11:36:08;;;;;;;5.28;2.08;;;;;;;17.04;47.30;98850.88;8134270;29;20063;-72
2022/05/30 11:40:46;;;;;;;5.82;2.20;;;;;;;17.34;49.14;98847.59;8132721;29;20049;-73
2022/05/30 11:44:59;;;;;;;7.30;1.90;;;;;;;17.05;50.63;98857.91;8132985;29;20142;-73
2022/05/30 11:49:17;;;;;;;5.90;2.30;;;;;;;16.68;50.56;98859.41;8132722;29;20087;-73
2022/05/30 11:53:36;;;;;;;5.15;2.20;;;;;;;16.58;51.50;98859.94;8133207;29;20052;-73
2022/05/30 11:57:46;;;;;;;9.20;2.13;;;;;;;16.64;48.92;98858.53;8101389;29;20131;-73
2022/05/30 12:01:50;;;;;;;7.50;1.85;;;;;;;17.12;50.09;98863.53;8100277;29;20618;-72
2022/05/30 12:06:09;;;;;;;7.53;2.08;;;;;;;17.76;48.77;98853.91;8119833;29;20044;-73
2022/05/30 12:10:52;;;;;;;11.05;2.10;;;;;;;18.15;48.16;98849.91;8166723;29;20047;-72
2022/05/30 12:14:58;;;;;;;12.35;2.20;;;;;;;18.49;48.90;98852.81;8168006;28;20047;-72
2022/05/30 12:24:18;;;;;;;4.32;2.22;;;;;;;18.14;46.75;98848.34;8191685;28;20149;-74
2022/05/30 12:28:28;;;;;;;22.15;3.85;;;;;;;17.91;46.59;98855.75;8195243;28;20043;-72
2022/05/30 12:32:34;;;;;;;7.85;2.00;;;;;;;17.87;49.12;98849.41;8179448;28;20513;-71
2022/05/30 12:36:39;;;;;;;5.30;1.90;;;;;;;18.08;47.23;98844.31;8147518;29;20139;-73
2022/05/30 12:40:45;;;;;;;5.93;1.70;;;;;;;18.07;44.63;98845.50;8194318;28;20374;-72
2022/05/30 12:44:49;;;;;;;4.25;1.67;;;;;;;18.15;45.54;98849.13;8195357;28;20051;-73
2022/05/30 12:48:50;;;;;;;4.15;1.77;;;;;;;18.40;46.05;98855.03;8174303;28;20134;-73
2022/05/30 12:52:54;;;;;;;3.72;1.60;;;;;;;18.77;46.50;98847.78;8168273;28;20062;-73
2022/05/30 12:57:01;;;;;;;3.50;1.52;;;;;;;18.48;44.75;98857.50;8184385;29;20051;-72
2022/05/30 13:01:20;;;;;;;5.55;1.70;;;;;;;18.56;44.94;98852.94;8205338;28;20499;-72
2022/05/30 13:05:23;;;;;;;4.53;1.60;;;;;;;18.35;43.15;98852.56;8204779;28;20047;-73
2022/05/30 13:09:44;;;;;;;4.22;1.48;;;;;;;18.25;43.54;98855.91;8205159;28;20472;-73
2022/05/30 13:13:47;;;;;;;4.57;1.98;;;;;;;18.32;41.22;98858.78;8202849;29;20541;-74
2022/05/30 13:18:03;;;;;;;4.55;1.58;;;;;;;18.51;41.80;98855.97;8203591;28;20126;-73
2022/05/30 13:22:04;;;;;;;2.65;1.30;;;;;;;18.59;40.26;98857.69;8203569;28;20055;-73
2022/05/30 13:26:15;;;;;;;3.88;1.20;;;;;;;19.07;41.90;98855.25;8204494;28;20051;-73
2022/05/30 13:30:23;;;;;;;2.03;1.20;;;;;;;19.44;41.31;98858.84;8218807;28;20055;-72
2022/05/30 13:34:26;;;;;;;2.22;1.30;;;;;;;20.84;39.39;98857.03;8199046;29;20058;-73
2022/05/30 13:38:37;;;;;;;5.13;1.55;;;;;;;21.81;36.00;98859.84;8198747;28;20043;-73
2022/05/30 13:42:52;;;;;;;6.47;1.65;;;;;;;23.06;34.93;98851.22;8203057;28;20748;-72
2022/05/30 13:47:16;;;;;;;2.53;1.30;;;;;;;23.74;33.77;98862.78;8151937;28;20051;-72
2022/05/30 13:51:28;;;;;;;1.88;1.13;;;;;;;23.76;32.23;98865.94;8200002;29;20047;-74
2022/05/30 13:55:29;;;;;;;3.40;1.52;;;;;;;25.63;31.74;98874.56;8199881;28;20059;-73
2022/05/30 13:59:40;;;;;;;2.40;1.25;;;;;;;26.52;29.22;98878.81;8199828;29;20058;-72
2022/05/30 14:03:47;;;;;;;4.85;1.42;;;;;;;26.24;28.64;98885.59;8199875;28;20148;-74
2022/05/30 14:07:55;;;;;;;4.15;1.25;;;;;;;23.99;30.84;98891.03;8202997;28;20107;-75
2022/05/30 14:12:00;;;;;;;3.10;1.30;;;;;;;22.92;33.15;98870.56;8202008;28;20055;-73
2022/05/30 14:16:04;;;;;;;3.10;1.20;;;;;;;25.59;28.92;98879.34;8201996;28;20628;-73
2022/05/30 14:20:12;;;;;;;5.30;1.75;;;;;;;23.98;29.78;98900.50;8203374;28;20055;-74
2022/05/30 14:24:32;;;;;;;2.28;1.20;;;;;;;21.77;34.69;98936.03;8203350;28;20106;-73
2022/05/30 14:29:07;;;;;;;2.78;1.38;;;;;;;19.68;38.86;98940.56;8201719;29;20423;-73
2022/05/30 14:33:29;;;;;;;5.60;1.63;;;;;;;18.24;42.68;98960.97;8165165;29;20058;-73
2022/05/30 14:37:30;;;;;;;7.13;1.52;;;;;;;17.68;44.88;98966.88;8152226;29;20444;-72
2022/05/30 14:41:34;;;;;;;5.57;1.83;;;;;;;17.55;46.20;98979.06;8138224;29;20075;-73
2022/05/30 14:45:43;;;;;;;11.77;2.33;;;;;;;17.00;48.96;98969.25;8133237;29;20153;-72
2022/05/30 14:50:00;;;;;;;4.43;1.80;;;;;;;16.86;50.77;98992.31;8124495;29;20048;-72
2022/05/30 14:54:15;;;;;;;4.40;2.13;;;;;;;16.55;52.81;98986.03;8155995;29;20055;-72
2022/05/30 14:58:23;;;;;;;5.78;2.10;;;;;;;16.47;53.92;98991.31;8134884;29;20107;-72
2022/05/30 15:06:53;;;;;;;5.90;2.50;;;;;;;16.29;56.33;98990.03;8127564;29;20182;-71
2022/05/30 15:10:55;;;;;;;5.40;2.40;;;;;;;16.52;55.67;98992.19;8181588;28;20535;-71
2022/05/30 15:14:56;;;;;;;9.48;2.03;;;;;;;16.64;55.41;98990.22;8187726;28;20066;-72
2022/05/30 15:18:58;;;;;;;5.20;2.10;;;;;;;16.75;55.03;98979.56;8181910;28;20507;-71
2022/05/30 15:23:01;;;;;;;3.15;1.73;;;;;;;16.56;54.05;98982.94;8189344;28;20051;-72
2022/05/30 15:27:04;;;;;;;3.80;1.70;;;;;;;16.71;54.66;98981.38;8189563;28;20491;-71
2022/05/30 15:31:06;;;;;;;3.38;1.60;;;;;;;16.60;54.43;98974.91;8207575;28;20047;-71
2022/05/30 15:35:07;;;;;;;7.68;1.90;;;;;;;16.57;54.99;98972.84;8178284;28;20048;-72
2022/05/30 15:39:11;;;;;;;3.78;1.50;;;;;;;16.38;54.48;98976.25;8202143;28;20043;-71
2022/05/30 15:43:12;;;;;;;3.05;1.67;;;;;;;16.72;54.38;98974.81;8190534;28;20073;-72
2022/05/30 15:47:13;;;;;;;4.95;1.50;;;;;;;17.14;52.46;98981.28;8185845;28;20047;-72
2022/05/30 15:51:17;;;;;;;3.38;1.55;;;;;;;17.34;51.97;98978.59;8183907;28;20075;-73
2022/05/30 15:59:38;;;;;;;8.65;3.00;;;;;;;16.59;53.72;98976.03;8182173;28;20062;-73
2022/05/30 16:03:38;;;;;;;4.88;1.40;;;;;;;16.65;53.83;98974.63;8171059;28;20039;-73
2022/05/30 16:07:41;;;;;;;3.40;1.40;;;;;;;17.06;53.16;98979.53;8221124;28;20046;-72
2022/05/30 16:11:48;;;;;;;3.83;1.65;;;;;;;17.12;52.76;98989.03;8210382;28;20110;-73
2022/05/30 16:15:52;;;;;;;4.07;1.90;;;;;;;16.91;52.69;98994.00;8194372;28;20428;-72
2022/05/30 16:19:53;;;;;;;6.72;2.33;;;;;;;16.94;52.82;98987.81;8165208;28;20047;-72
2022/05/30 16:23:57;;;;;;;3.35;1.55;;;;;;;16.98;52.58;98998.81;8196841;28;20059;-73
2022/05/30 16:27:59;;;;;;;6.22;2.10;;;;;;;16.87;53.04;99004.00;8194450;28;20093;-72
2022/05/30 16:32:01;;;;;;;3.88;1.50;;;;;;;16.72;52.91;99002.06;8190926;28;20047;-72
2022/05/30 16:36:02;;;;;;;4.03;1.30;;;;;;;16.61;53.55;99006.47;8193504;28;20043;-74
2022/05/30 16:40:06;;;;;;;3.80;1.73;;;;;;;16.51;54.17;98996.03;8193428;28;20126;-73
2022/05/30 16:44:09;;;;;;;3.63;1.67;;;;;;;16.42;54.50;99005.19;8184206;28;20059;-74
2022/05/30 16:48:18;;;;;;;4.22;1.42;;;;;;;16.66;54.72;99008.91;8184937;28;20142;-73
2022/05/30 16:52:21;;;;;;;;;;;;;;;16.72;54.34;99002.06;8171867;29;20062;-74
2022/05/30 16:56:22;;;;;;;6.65;1.90;;;;;;;16.59;55.20;99015.00;8178392;28;20013;-72
2022/05/30 17:00:23;;;;;;;2.72;1.65;;;;;;;16.50;55.18;99005.38;8198968;28;20051;-74
2022/05/30 17:04:24;;;;;;;2.72;1.75;;;;;;;16.20;55.89;99008.47;8201627;28;20059;-73
2022/05/30 17:08:29;;;;;;;3.72;2.17;;;;;;;15.86;56.63;99011.81;8178704;29;20054;-74
2022/05/30 17:12:30;;;;;;;4.30;1.92;;;;;;;15.53;57.28;99007.34;8189958;28;20044;-74
2022/05/30 17:16:34;;;;;;;6.22;1.85;;;;;;;15.35;57.35;99000.53;8202647;28;20043;-74
2022/05/30 17:20:45;;;;;;;5.47;1.80;;;;;;;15.26;57.32;99008.03;8184041;28;20067;-73
2022/05/30 17:24:47;;;;;;;3.70;1.80;;;;;;;15.17;57.85;99004.66;8185218;28;20044;-74
2022/05/30 17:29:07;;;;;;;6.55;2.40;;;;;;;15.04;58.11;99003.06;8178518;28;20059;-74
2022/05/30 17:33:08;;;;;;;6.50;2.42;;;;;;;14.89;58.45;99003.75;8188271;28;20135;-74
2022/05/30 17:37:09;;;;;;;4.57;2.00;;;;;;;14.79;59.00;99011.22;8186363;28;20150;-74
2022/05/30 17:41:11;;;;;;;6.93;4.20;;;;;;;14.60;59.52;99013.66;8184557;28;20055;-74
2022/05/30 17:45:12;;;;;;;14.23;9.50;;;;;;;14.53;60.17;99018.88;8167184;29;20048;-72
2022/05/30 17:49:22;;;;;;;9.20;6.47;;;;;;;14.40;60.51;99032.75;8183823;28;20051;-72
2022/05/30 17:53:24;;;;;;;6.82;3.10;;;;;;;14.25;61.01;99034.16;8171726;29;20166;-73
2022/05/30 17:57:26;;;;;;;6.93;3.55;;;;;;;14.15;61.91;99040.00;8200518;28;20051;-72
2022/05/30 18:01:27;;;;;;;9.68;3.38;;;;;;;13.99;62.44;99047.97;8190724;28;20051;-72
2022/05/30 18:05:32;;;;;;;12.15;5.55;;;;;;;13.80;63.11;99056.56;8178259;28;20062;-71
2022/05/30 18:09:33;;;;;;;14.40;7.35;;;;;;;13.64;64.01;99052.06;8189378;29;20047;-72
2022/05/30 18:13:49;;;;;;;19.50;7.45;;;;;;;13.51;64.74;99053.91;8184183;29;20119;-72
2022/05/30 18:17:56;;;;;;;11.38;5.47;;;;;;;13.38;64.93;99065.78;8183804;29;20615;-72
2022/05/30 18:22:13;;;;;;;16.15;11.07;;;;;;;13.29;65.50;99073.19;8195336;28;20114;-72
2022/05/30 18:26:14;;;;;;;15.30;10.35;;;;;;;13.18;65.94;99072.75;8175618;29;20429;-72
2022/05/30 18:30:22;;;;;;;11.27;7.25;;;;;;;13.07;66.63;99075.00;8177211;29;20677;-72
2022/05/30 18:34:47;;;;;;;9.10;6.00;;;;;;;12.94;67.24;99070.59;8196812;28;20084;-72
2022/05/30 18:38:57;;;;;;;8.25;4.85;;;;;;;12.80;67.56;99088.97;8216423;28;20507;-72
2022/05/30 18:43:15;;;;;;;4.25;3.17;;;;;;;12.65;68.17;99092.19;8201013;28;20055;-73
2022/05/30 18:47:21;;;;;;;6.15;3.63;;;;;;;12.48;68.58;99113.88;8200861;28;20054;-73
2022/05/30 18:51:22;;;;;;;6.63;3.83;;;;;;;12.35;68.93;99104.03;8207978;28;20043;-72
2022/05/30 18:55:25;;;;;;;9.07;4.68;;;;;;;12.21;69.71;99115.81;8199367;28;20134;-72
2022/05/30 18:59:30;;;;;;;8.55;4.07;;;;;;;12.03;70.23;99118.84;8199586;28;20138;-72
2022/05/30 19:03:32;;;;;;;5.43;3.28;;;;;;;11.87;70.77;99121.22;8203942;28;20130;-72
2022/05/30 19:07:35;;;;;;;12.77;5.82;;;;;;;11.75;71.03;99126.44;8178384;29;20145;-73
2022/05/30 19:11:53;;;;;;;11.13;6.60;;;;;;;11.66;71.08;99120.19;8199349;28;20051;-72
2022/05/30 19:20:17;;;;;;;11.18;6.82;;;;;;;11.35;72.01;99125.69;8175510;29;20058;-73
2022/05/30 19:24:18;;;;;;;12.73;7.90;;;;;;;11.22;72.66;99126.56;8187588;28;20051;-73
2022/05/30 19:28:24;;;;;;;13.20;8.38;;;;;;;11.11;73.03;99120.66;8188551;28;20134;-74
2022/05/30 19:32:27;;;;;;;18.23;9.60;;;;;;;11.00;72.93;99124.72;8200914;28;20051;-72
2022/05/30 19:36:28;;;;;;;17.08;8.80;;;;;;;10.85;73.10;99127.84;8184918;28;20075;-73
2022/05/30 19:41:01;;;;;;;17.63;9.68;;;;;;;10.66;73.49;99129.94;8197303;28;20106;-73
2022/05/30 19:45:05;;;;;;;21.75;8.77;;;;;;;10.54;73.77;99133.19;8144663;28;20039;-73
2022/05/30 19:49:07;;;;;;;22.27;10.55;;;;;;;10.47;73.77;99139.03;8191627;28;20051;-73
2022/05/30 19:53:13;;;;;;;27.35;11.90;;;;;;;10.33;74.15;99151.78;8161616;28;20072;-73